sensor_id;sensor_type;location;lat;lon;timestamp;P1;durP1;ratioP1;P2;durP2;ratioP2
41253;SDS011;26987;59.928;30.306;2023-05-07T00:01:27;7.15;;;2.30;;
41253;SDS011;26987;59.928;30.306;2023-05-07T00:03:54;4.78;;;2.08;;
41253;SDS011;26987;59.928;30.306;2023-05-07T00:06:22;9.13;;;2.47;;
41253;SDS011;26987;59.928;30.306;2023-05-07T00:08:53;4.00;;;2.30;;
41253;SDS011;26987;59.928;30.306;2023-05-07T00:11:21;9.95;;;3.00;;
41253;SDS011;26987;59.928;30.306;2023-05-07T00:13:49;5.10;;;2.65;;
41253;SDS011;26987;59.928;30.306;2023-05-07T00:16:16;7.13;;;2.50;;
41253;SDS011;26987;59.928;30.306;2023-05-07T00:18:44;6.68;;;2.38;;
41253;SDS011;26987;59.928;30.306;2023-05-07T00:21:12;6.32;;;2.67;;
41253;SDS011;26987;59.928;30.306;2023-05-07T00:23:40;4.60;;;2.58;;
41253;SDS011;26987;59.928;30.306;2023-05-07T00:26:09;6.00;;;2.60;;
41253;SDS011;26987;59.928;30.306;2023-05-07T00:28:37;3.67;;;2.30;;
41253;SDS011;26987;59.928;30.306;2023-05-07T00:31:05;5.35;;;2.50;;
41253;SDS011;26987;59.928;30.306;2023-05-07T00:33:33;5.22;;;2.40;;
41253;SDS011;26987;59.928;30.306;2023-05-07T00:36:01;5.03;;;2.55;;
41253;SDS011;26987;59.928;30.306;2023-05-07T00:38:28;5.78;;;2.53;;
41253;SDS011;26987;59.928;30.306;2023-05-07T00:40:56;5.57;;;2.90;;
41253;SDS011;26987;59.928;30.306;2023-05-07T00:43:25;5.65;;;2.55;;
41253;SDS011;26987;59.928;30.306;2023-05-07T00:45:54;5.22;;;2.42;;
41253;SDS011;26987;59.928;30.306;2023-05-07T00:48:22;4.47;;;2.45;;
41253;SDS011;26987;59.928;30.306;2023-05-07T00:50:50;5.90;;;2.70;;
41253;SDS011;26987;59.928;30.306;2023-05-07T00:53:18;5.88;;;2.72;;
41253;SDS011;26987;59.928;30.306;2023-05-07T00:55:47;5.63;;;2.55;;
41253;SDS011;26987;59.928;30.306;2023-05-07T00:58:16;7.03;;;2.50;;
41253;SDS011;26987;59.928;30.306;2023-05-07T01:00:45;9.95;;;3.42;;
41253;SDS011;26987;59.928;30.306;2023-05-07T01:03:13;6.80;;;3.45;;
41253;SDS011;26987;59.928;30.306;2023-05-07T01:05:41;6.22;;;2.42;;
41253;SDS011;26987;59.928;30.306;2023-05-07T01:08:12;6.35;;;2.63;;
41253;SDS011;26987;59.928;30.306;2023-05-07T01:10:41;7.65;;;2.33;;
41253;SDS011;26987;59.928;30.306;2023-05-07T01:13:10;4.88;;;2.40;;
41253;SDS011;26987;59.928;30.306;2023-05-07T01:15:39;6.80;;;2.50;;
41253;SDS011;26987;59.928;30.306;2023-05-07T01:18:09;8.07;;;2.55;;
41253;SDS011;26987;59.928;30.306;2023-05-07T01:20:37;4.25;;;2.40;;
41253;SDS011;26987;59.928;30.306;2023-05-07T01:23:06;4.43;;;1.92;;
41253;SDS011;26987;59.928;30.306;2023-05-07T01:25:35;3.70;;;1.92;;
41253;SDS011;26987;59.928;30.306;2023-05-07T01:28:03;4.70;;;2.53;;
41253;SDS011;26987;59.928;30.306;2023-05-07T01:30:37;6.78;;;2.13;;
41253;SDS011;26987;59.928;30.306;2023-05-07T01:33:10;5.95;;;2.92;;
41253;SDS011;26987;59.928;30.306;2023-05-07T01:35:43;9.38;;;2.70;;
41253;SDS011;26987;59.928;30.306;2023-05-07T01:38:16;4.88;;;2.70;;
41253;SDS011;26987;59.928;30.306;2023-05-07T01:40:45;6.70;;;2.13;;
41253;SDS011;26987;59.928;30.306;2023-05-07T01:43:13;3.55;;;2.05;;
41253;SDS011;26987;59.928;30.306;2023-05-07T01:45:42;2.85;;;1.90;;
41253;SDS011;26987;59.928;30.306;2023-05-07T01:48:11;5.22;;;1.98;;
41253;SDS011;26987;59.928;30.306;2023-05-07T01:50:39;4.68;;;2.25;;
41253;SDS011;26987;59.928;30.306;2023-05-07T01:53:08;5.50;;;2.40;;
41253;SDS011;26987;59.928;30.306;2023-05-07T01:55:39;4.05;;;1.70;;
41253;SDS011;26987;59.928;30.306;2023-05-07T01:58:07;2.58;;;1.88;;
41253;SDS011;26987;59.928;30.306;2023-05-07T02:00:35;3.75;;;2.05;;
41253;SDS011;26987;59.928;30.306;2023-05-07T02:03:04;6.38;;;2.40;;
41253;SDS011;26987;59.928;30.306;2023-05-07T02:05:49;8.38;;;2.70;;
41253;SDS011;26987;59.928;30.306;2023-05-07T02:08:27;4.97;;;1.88;;
41253;SDS011;26987;59.928;30.306;2023-05-07T02:10:57;8.35;;;2.88;;
41253;SDS011;26987;59.928;30.306;2023-05-07T02:13:26;4.43;;;2.33;;
41253;SDS011;26987;59.928;30.306;2023-05-07T02:15:56;5.93;;;2.25;;
41253;SDS011;26987;59.928;30.306;2023-05-07T02:18:24;4.53;;;2.33;;
41253;SDS011;26987;59.928;30.306;2023-05-07T02:20:52;4.43;;;2.20;;
41253;SDS011;26987;59.928;30.306;2023-05-07T02:23:20;5.63;;;2.47;;
41253;SDS011;26987;59.928;30.306;2023-05-07T02:25:48;3.63;;;2.05;;
41253;SDS011;26987;59.928;30.306;2023-05-07T02:28:18;3.83;;;2.22;;
41253;SDS011;26987;59.928;30.306;2023-05-07T02:30:53;4.70;;;2.58;;
41253;SDS011;26987;59.928;30.306;2023-05-07T02:33:22;5.18;;;2.05;;
41253;SDS011;26987;59.928;30.306;2023-05-07T02:35:49;7.47;;;2.15;;
41253;SDS011;26987;59.928;30.306;2023-05-07T02:38:17;4.57;;;2.20;;
41253;SDS011;26987;59.928;30.306;2023-05-07T02:40:45;4.32;;;1.85;;
41253;SDS011;26987;59.928;30.306;2023-05-07T02:43:13;12.88;;;2.30;;
41253;SDS011;26987;59.928;30.306;2023-05-07T02:45:45;8.45;;;2.10;;
41253;SDS011;26987;59.928;30.306;2023-05-07T02:48:14;5.53;;;2.25;;
41253;SDS011;26987;59.928;30.306;2023-05-07T02:50:42;6.90;;;2.05;;
41253;SDS011;26987;59.928;30.306;2023-05-07T02:53:13;6.93;;;2.40;;
41253;SDS011;26987;59.928;30.306;2023-05-07T02:55:40;11.55;;;3.40;;
41253;SDS011;26987;59.928;30.306;2023-05-07T02:58:08;7.40;;;2.50;;
41253;SDS011;26987;59.928;30.306;2023-05-07T03:00:38;6.03;;;2.20;;
41253;SDS011;26987;59.928;30.306;2023-05-07T03:03:31;6.40;;;2.10;;
41253;SDS011;26987;59.928;30.306;2023-05-07T03:05:59;8.27;;;2.20;;
41253;SDS011;26987;59.928;30.306;2023-05-07T03:08:26;5.20;;;2.30;;
41253;SDS011;26987;59.928;30.306;2023-05-07T03:10:55;6.20;;;1.90;;
41253;SDS011;26987;59.928;30.306;2023-05-07T03:13:22;3.88;;;1.50;;
41253;SDS011;26987;59.928;30.306;2023-05-07T03:15:51;5.57;;;1.50;;
41253;SDS011;26987;59.928;30.306;2023-05-07T03:18:19;2.58;;;1.80;;
41253;SDS011;26987;59.928;30.306;2023-05-07T03:20:49;5.65;;;1.60;;
41253;SDS011;26987;59.928;30.306;2023-05-07T03:23:18;4.55;;;1.52;;
41253;SDS011;26987;59.928;30.306;2023-05-07T03:25:46;4.25;;;1.75;;
41253;SDS011;26987;59.928;30.306;2023-05-07T03:28:14;3.42;;;1.42;;
41253;SDS011;26987;59.928;30.306;2023-05-07T03:30:47;4.28;;;1.42;;
41253;SDS011;26987;59.928;30.306;2023-05-07T03:33:15;4.38;;;1.42;;
41253;SDS011;26987;59.928;30.306;2023-05-07T03:35:49;9.40;;;1.73;;
41253;SDS011;26987;59.928;30.306;2023-05-07T03:38:21;3.38;;;1.60;;
41253;SDS011;26987;59.928;30.306;2023-05-07T03:40:50;3.08;;;1.30;;
41253;SDS011;26987;59.928;30.306;2023-05-07T03:43:18;2.58;;;1.40;;
41253;SDS011;26987;59.928;30.306;2023-05-07T03:45:50;3.58;;;1.40;;
41253;SDS011;26987;59.928;30.306;2023-05-07T03:48:23;4.78;;;1.73;;
41253;SDS011;26987;59.928;30.306;2023-05-07T03:50:55;2.83;;;1.20;;
41253;SDS011;26987;59.928;30.306;2023-05-07T03:53:25;2.63;;;1.45;;
41253;SDS011;26987;59.928;30.306;2023-05-07T03:55:52;3.40;;;1.42;;
41253;SDS011;26987;59.928;30.306;2023-05-07T03:58:21;4.72;;;1.70;;
41253;SDS011;26987;59.928;30.306;2023-05-07T04:00:48;2.85;;;1.58;;
41253;SDS011;26987;59.928;30.306;2023-05-07T04:03:24;3.22;;;1.35;;
41253;SDS011;26987;59.928;30.306;2023-05-07T04:05:55;3.17;;;1.55;;
41253;SDS011;26987;59.928;30.306;2023-05-07T04:08:23;2.92;;;1.52;;
41253;SDS011;26987;59.928;30.306;2023-05-07T04:10:56;2.70;;;1.40;;
41253;SDS011;26987;59.928;30.306;2023-05-07T04:13:27;5.70;;;2.03;;
41253;SDS011;26987;59.928;30.306;2023-05-07T04:15:58;4.75;;;1.70;;
41253;SDS011;26987;59.928;30.306;2023-05-07T04:18:26;2.97;;;1.30;;
41253;SDS011;26987;59.928;30.306;2023-05-07T04:20:56;4.25;;;1.30;;
41253;SDS011;26987;59.928;30.306;2023-05-07T04:23:23;4.97;;;1.60;;
41253;SDS011;26987;59.928;30.306;2023-05-07T04:25:52;4.70;;;2.35;;
41253;SDS011;26987;59.928;30.306;2023-05-07T04:28:29;7.80;;;1.50;;
41253;SDS011;26987;59.928;30.306;2023-05-07T04:30:58;3.08;;;1.20;;
41253;SDS011;26987;59.928;30.306;2023-05-07T04:33:26;3.45;;;1.00;;
41253;SDS011;26987;59.928;30.306;2023-05-07T04:35:57;3.17;;;1.30;;
41253;SDS011;26987;59.928;30.306;2023-05-07T04:38:29;2.97;;;1.42;;
41253;SDS011;26987;59.928;30.306;2023-05-07T04:41:02;4.43;;;1.52;;
41253;SDS011;26987;59.928;30.306;2023-05-07T04:43:33;7.03;;;1.35;;
41253;SDS011;26987;59.928;30.306;2023-05-07T04:46:01;1.70;;;0.90;;
41253;SDS011;26987;59.928;30.306;2023-05-07T04:48:29;1.85;;;1.00;;
41253;SDS011;26987;59.928;30.306;2023-05-07T04:51:00;1.30;;;0.75;;
41253;SDS011;26987;59.928;30.306;2023-05-07T04:53:28;1.48;;;0.88;;
41253;SDS011;26987;59.928;30.306;2023-05-07T04:55:57;2.20;;;1.02;;
41253;SDS011;26987;59.928;30.306;2023-05-07T04:58:31;1.58;;;0.55;;
41253;SDS011;26987;59.928;30.306;2023-05-07T05:00:59;3.22;;;0.95;;
41253;SDS011;26987;59.928;30.306;2023-05-07T05:03:29;1.38;;;0.60;;
41253;SDS011;26987;59.928;30.306;2023-05-07T05:05:57;2.25;;;0.73;;
41253;SDS011;26987;59.928;30.306;2023-05-07T05:08:29;1.27;;;0.90;;
41253;SDS011;26987;59.928;30.306;2023-05-07T05:10:57;3.65;;;1.00;;
41253;SDS011;26987;59.928;30.306;2023-05-07T05:13:25;1.33;;;0.60;;
41253;SDS011;26987;59.928;30.306;2023-05-07T05:15:53;2.95;;;0.90;;
41253;SDS011;26987;59.928;30.306;2023-05-07T05:18:22;4.30;;;1.50;;
41253;SDS011;26987;59.928;30.306;2023-05-07T05:20:51;2.58;;;0.85;;
41253;SDS011;26987;59.928;30.306;2023-05-07T05:23:19;2.10;;;0.80;;
41253;SDS011;26987;59.928;30.306;2023-05-07T05:25:49;3.00;;;0.80;;
41253;SDS011;26987;59.928;30.306;2023-05-07T05:28:17;3.60;;;0.65;;
41253;SDS011;26987;59.928;30.306;2023-05-07T05:30:44;4.20;;;0.77;;
41253;SDS011;26987;59.928;30.306;2023-05-07T05:33:12;1.88;;;0.90;;
41253;SDS011;26987;59.928;30.306;2023-05-07T05:35:41;2.00;;;0.77;;
41253;SDS011;26987;59.928;30.306;2023-05-07T05:38:11;3.80;;;0.98;;
41253;SDS011;26987;59.928;30.306;2023-05-07T05:40:41;2.58;;;0.98;;
41253;SDS011;26987;59.928;30.306;2023-05-07T05:43:10;3.40;;;0.82;;
41253;SDS011;26987;59.928;30.306;2023-05-07T05:45:38;5.22;;;1.27;;
41253;SDS011;26987;59.928;30.306;2023-05-07T05:48:06;3.08;;;1.05;;
41253;SDS011;26987;59.928;30.306;2023-05-07T05:50:34;3.53;;;0.95;;
41253;SDS011;26987;59.928;30.306;2023-05-07T05:53:04;4.43;;;1.75;;
41253;SDS011;26987;59.928;30.306;2023-05-07T05:55:32;7.10;;;1.15;;
41253;SDS011;26987;59.928;30.306;2023-05-07T05:58:01;1.67;;;1.17;;
41253;SDS011;26987;59.928;30.306;2023-05-07T06:00:33;3.75;;;0.82;;
41253;SDS011;26987;59.928;30.306;2023-05-07T06:03:03;2.15;;;1.08;;
41253;SDS011;26987;59.928;30.306;2023-05-07T06:05:32;2.90;;;1.48;;
41253;SDS011;26987;59.928;30.306;2023-05-07T06:08:00;5.13;;;1.10;;
41253;SDS011;26987;59.928;30.306;2023-05-07T06:10:32;3.03;;;0.57;;
41253;SDS011;26987;59.928;30.306;2023-05-07T06:13:00;3.15;;;1.05;;
41253;SDS011;26987;59.928;30.306;2023-05-07T06:15:30;3.20;;;0.95;;
41253;SDS011;26987;59.928;30.306;2023-05-07T06:18:04;4.03;;;1.10;;
41253;SDS011;26987;59.928;30.306;2023-05-07T06:20:32;4.40;;;1.13;;
41253;SDS011;26987;59.928;30.306;2023-05-07T06:23:02;5.97;;;1.67;;
41253;SDS011;26987;59.928;30.306;2023-05-07T06:25:32;4.97;;;1.23;;
41253;SDS011;26987;59.928;30.306;2023-05-07T06:28:00;2.40;;;1.33;;
41253;SDS011;26987;59.928;30.306;2023-05-07T06:30:28;2.80;;;0.90;;
41253;SDS011;26987;59.928;30.306;2023-05-07T06:32:56;4.53;;;1.40;;
41253;SDS011;26987;59.928;30.306;2023-05-07T06:35:27;2.95;;;1.00;;
41253;SDS011;26987;59.928;30.306;2023-05-07T06:37:55;4.68;;;1.35;;
41253;SDS011;26987;59.928;30.306;2023-05-07T06:40:28;3.30;;;1.15;;
41253;SDS011;26987;59.928;30.306;2023-05-07T06:42:59;6.43;;;2.10;;
41253;SDS011;26987;59.928;30.306;2023-05-07T06:45:46;2.22;;;1.02;;
41253;SDS011;26987;59.928;30.306;2023-05-07T06:48:14;8.10;;;1.10;;
41253;SDS011;26987;59.928;30.306;2023-05-07T06:50:53;5.35;;;1.50;;
41253;SDS011;26987;59.928;30.306;2023-05-07T06:53:23;7.10;;;1.80;;
41253;SDS011;26987;59.928;30.306;2023-05-07T06:55:53;5.80;;;1.35;;
41253;SDS011;26987;59.928;30.306;2023-05-07T06:58:21;2.33;;;1.00;;
41253;SDS011;26987;59.928;30.306;2023-05-07T07:00:49;1.60;;;1.08;;
41253;SDS011;26987;59.928;30.306;2023-05-07T07:03:17;4.30;;;1.73;;
41253;SDS011;26987;59.928;30.306;2023-05-07T07:05:46;4.25;;;1.35;;
41253;SDS011;26987;59.928;30.306;2023-05-07T07:08:15;3.30;;;1.17;;
41253;SDS011;26987;59.928;30.306;2023-05-07T07:10:44;22.95;;;1.50;;
41253;SDS011;26987;59.928;30.306;2023-05-07T07:13:12;2.55;;;1.42;;
41253;SDS011;26987;59.928;30.306;2023-05-07T07:15:40;2.97;;;1.30;;
41253;SDS011;26987;59.928;30.306;2023-05-07T07:18:08;5.43;;;1.50;;
41253;SDS011;26987;59.928;30.306;2023-05-07T07:20:37;6.40;;;1.13;;
41253;SDS011;26987;59.928;30.306;2023-05-07T07:23:07;2.20;;;1.23;;
41253;SDS011;26987;59.928;30.306;2023-05-07T07:25:37;2.00;;;1.27;;
41253;SDS011;26987;59.928;30.306;2023-05-07T07:28:05;5.90;;;1.00;;
41253;SDS011;26987;59.928;30.306;2023-05-07T07:30:33;2.58;;;0.90;;
41253;SDS011;26987;59.928;30.306;2023-05-07T07:33:01;4.68;;;1.50;;
41253;SDS011;26987;59.928;30.306;2023-05-07T07:35:33;1.38;;;0.93;;
41253;SDS011;26987;59.928;30.306;2023-05-07T07:38:04;1.75;;;1.15;;
41253;SDS011;26987;59.928;30.306;2023-05-07T07:40:33;9.57;;;1.67;;
41253;SDS011;26987;59.928;30.306;2023-05-07T07:43:03;6.97;;;1.30;;
41253;SDS011;26987;59.928;30.306;2023-05-07T07:45:32;3.00;;;1.02;;
41253;SDS011;26987;59.928;30.306;2023-05-07T07:48:00;3.55;;;1.20;;
41253;SDS011;26987;59.928;30.306;2023-05-07T07:50:30;3.72;;;1.02;;
41253;SDS011;26987;59.928;30.306;2023-05-07T07:52:59;8.75;;;0.90;;
41253;SDS011;26987;59.928;30.306;2023-05-07T07:55:27;3.60;;;1.10;;
41253;SDS011;26987;59.928;30.306;2023-05-07T07:57:57;2.67;;;0.90;;
41253;SDS011;26987;59.928;30.306;2023-05-07T08:00:26;1.67;;;0.80;;
41253;SDS011;26987;59.928;30.306;2023-05-07T08:02:56;2.00;;;0.80;;
41253;SDS011;26987;59.928;30.306;2023-05-07T08:05:28;4.30;;;1.13;;
41253;SDS011;26987;59.928;30.306;2023-05-07T08:07:58;1.45;;;0.90;;
41253;SDS011;26987;59.928;30.306;2023-05-07T08:10:30;4.03;;;1.08;;
41253;SDS011;26987;59.928;30.306;2023-05-07T08:13:04;3.95;;;1.15;;
41253;SDS011;26987;59.928;30.306;2023-05-07T08:15:36;5.78;;;1.25;;
41253;SDS011;26987;59.928;30.306;2023-05-07T08:18:05;2.75;;;0.93;;
41253;SDS011;26987;59.928;30.306;2023-05-07T08:20:34;6.88;;;1.02;;
41253;SDS011;26987;59.928;30.306;2023-05-07T08:23:07;7.95;;;1.05;;
41253;SDS011;26987;59.928;30.306;2023-05-07T08:25:37;5.05;;;1.63;;
41253;SDS011;26987;59.928;30.306;2023-05-07T08:28:05;6.82;;;1.42;;
41253;SDS011;26987;59.928;30.306;2023-05-07T08:30:33;5.20;;;1.33;;
41253;SDS011;26987;59.928;30.306;2023-05-07T08:33:02;16.88;;;1.67;;
41253;SDS011;26987;59.928;30.306;2023-05-07T08:35:30;3.03;;;1.17;;
41253;SDS011;26987;59.928;30.306;2023-05-07T08:37:58;6.20;;;0.93;;
41253;SDS011;26987;59.928;30.306;2023-05-07T08:40:26;9.48;;;1.10;;
41253;SDS011;26987;59.928;30.306;2023-05-07T08:42:58;2.80;;;0.90;;
41253;SDS011;26987;59.928;30.306;2023-05-07T08:45:28;9.25;;;1.08;;
41253;SDS011;26987;59.928;30.306;2023-05-07T08:48:01;3.55;;;0.98;;
41253;SDS011;26987;59.928;30.306;2023-05-07T08:50:36;5.45;;;0.80;;
41253;SDS011;26987;59.928;30.306;2023-05-07T08:53:05;6.50;;;1.00;;
41253;SDS011;26987;59.928;30.306;2023-05-07T08:55:34;3.90;;;1.85;;
41253;SDS011;26987;59.928;30.306;2023-05-07T08:58:02;3.72;;;1.08;;
41253;SDS011;26987;59.928;30.306;2023-05-07T09:00:31;2.30;;;1.30;;
41253;SDS011;26987;59.928;30.306;2023-05-07T09:03:06;2.33;;;1.10;;
41253;SDS011;26987;59.928;30.306;2023-05-07T09:05:35;2.92;;;0.90;;
41253;SDS011;26987;59.928;30.306;2023-05-07T09:08:07;2.78;;;0.88;;
41253;SDS011;26987;59.928;30.306;2023-05-07T09:10:36;2.17;;;0.73;;
41253;SDS011;26987;59.928;30.306;2023-05-07T09:13:05;2.35;;;1.30;;
41253;SDS011;26987;59.928;30.306;2023-05-07T09:15:34;2.63;;;0.60;;
41253;SDS011;26987;59.928;30.306;2023-05-07T09:18:06;4.03;;;1.75;;
41253;SDS011;26987;59.928;30.306;2023-05-07T09:20:36;11.13;;;0.80;;
41253;SDS011;26987;59.928;30.306;2023-05-07T09:23:05;1.60;;;0.77;;
41253;SDS011;26987;59.928;30.306;2023-05-07T09:25:34;8.10;;;1.70;;
41253;SDS011;26987;59.928;30.306;2023-05-07T09:28:10;4.90;;;0.85;;
41253;SDS011;26987;59.928;30.306;2023-05-07T09:30:38;3.00;;;0.65;;
41253;SDS011;26987;59.928;30.306;2023-05-07T09:33:10;1.95;;;0.73;;
41253;SDS011;26987;59.928;30.306;2023-05-07T09:35:41;3.75;;;0.70;;
41253;SDS011;26987;59.928;30.306;2023-05-07T09:38:15;4.82;;;1.30;;
41253;SDS011;26987;59.928;30.306;2023-05-07T09:40:52;6.60;;;1.15;;
41253;SDS011;26987;59.928;30.306;2023-05-07T09:43:31;3.25;;;1.45;;
41253;SDS011;26987;59.928;30.306;2023-05-07T09:46:02;3.38;;;0.52;;
41253;SDS011;26987;59.928;30.306;2023-05-07T09:48:39;2.35;;;0.47;;
41253;SDS011;26987;59.928;30.306;2023-05-07T09:51:21;6.63;;;0.43;;
41253;SDS011;26987;59.928;30.306;2023-05-07T09:53:54;4.00;;;1.10;;
41253;SDS011;26987;59.928;30.306;2023-05-07T09:56:24;1.88;;;0.35;;
41253;SDS011;26987;59.928;30.306;2023-05-07T09:58:53;1.55;;;0.60;;
41253;SDS011;26987;59.928;30.306;2023-05-07T10:01:31;2.83;;;0.68;;
41253;SDS011;26987;59.928;30.306;2023-05-07T10:04:02;6.22;;;0.52;;
41253;SDS011;26987;59.928;30.306;2023-05-07T10:06:31;3.35;;;0.60;;
41253;SDS011;26987;59.928;30.306;2023-05-07T10:09:00;2.45;;;0.70;;
41253;SDS011;26987;59.928;30.306;2023-05-07T10:11:28;4.40;;;0.60;;
41253;SDS011;26987;59.928;30.306;2023-05-07T10:13:57;3.60;;;0.73;;
41253;SDS011;26987;59.928;30.306;2023-05-07T10:16:25;2.67;;;0.60;;
41253;SDS011;26987;59.928;30.306;2023-05-07T10:18:55;5.25;;;0.57;;
41253;SDS011;26987;59.928;30.306;2023-05-07T10:21:27;2.53;;;0.52;;
41253;SDS011;26987;59.928;30.306;2023-05-07T10:24:03;1.10;;;0.50;;
41253;SDS011;26987;59.928;30.306;2023-05-07T10:26:36;6.50;;;0.75;;
41253;SDS011;26987;59.928;30.306;2023-05-07T10:29:07;3.17;;;0.63;;
41253;SDS011;26987;59.928;30.306;2023-05-07T10:31:55;1.63;;;0.47;;
41253;SDS011;26987;59.928;30.306;2023-05-07T10:34:28;3.78;;;0.50;;
41253;SDS011;26987;59.928;30.306;2023-05-07T10:37:01;4.25;;;0.60;;
41253;SDS011;26987;59.928;30.306;2023-05-07T10:39:31;1.25;;;0.40;;
41253;SDS011;26987;59.928;30.306;2023-05-07T10:42:07;4.13;;;0.57;;
41253;SDS011;26987;59.928;30.306;2023-05-07T10:44:36;2.90;;;0.40;;
41253;SDS011;26987;59.928;30.306;2023-05-07T10:47:09;4.00;;;0.50;;
41253;SDS011;26987;59.928;30.306;2023-05-07T10:59:31;3.30;;;0.63;;
41253;SDS011;26987;59.928;30.306;2023-05-07T11:05:43;0.63;;;0.32;;
41253;SDS011;26987;59.928;30.306;2023-05-07T11:11:44;0.95;;;0.38;;
41253;SDS011;26987;59.928;30.306;2023-05-07T11:17:18;1.90;;;0.52;;
41253;SDS011;26987;59.928;30.306;2023-05-07T11:19:53;1.75;;;0.70;;
41253;SDS011;26987;59.928;30.306;2023-05-07T11:22:48;2.70;;;0.40;;
41253;SDS011;26987;59.928;30.306;2023-05-07T11:25:40;3.00;;;0.47;;
41253;SDS011;26987;59.928;30.306;2023-05-07T11:28:17;3.83;;;0.52;;
41253;SDS011;26987;59.928;30.306;2023-05-07T11:30:53;3.15;;;0.50;;
41253;SDS011;26987;59.928;30.306;2023-05-07T11:33:21;2.33;;;0.70;;
41253;SDS011;26987;59.928;30.306;2023-05-07T11:35:53;5.00;;;0.60;;
41253;SDS011;26987;59.928;30.306;2023-05-07T11:38:24;0.65;;;0.30;;
41253;SDS011;26987;59.928;30.306;2023-05-07T11:40:54;2.72;;;0.75;;
41253;SDS011;26987;59.928;30.306;2023-05-07T11:43:23;4.57;;;1.50;;
41253;SDS011;26987;59.928;30.306;2023-05-07T11:45:51;3.65;;;0.70;;
41253;SDS011;26987;59.928;30.306;2023-05-07T11:48:19;4.47;;;0.50;;
41253;SDS011;26987;59.928;30.306;2023-05-07T11:50:52;5.10;;;1.13;;
41253;SDS011;26987;59.928;30.306;2023-05-07T11:53:24;2.20;;;0.40;;
41253;SDS011;26987;59.928;30.306;2023-05-07T11:55:54;2.00;;;0.55;;
41253;SDS011;26987;59.928;30.306;2023-05-07T11:58:23;5.88;;;0.35;;
41253;SDS011;26987;59.928;30.306;2023-05-07T12:00:52;1.27;;;0.85;;
41253;SDS011;26987;59.928;30.306;2023-05-07T12:03:21;3.92;;;1.33;;
41253;SDS011;26987;59.928;30.306;2023-05-07T12:05:48;3.38;;;0.47;;
41253;SDS011;26987;59.928;30.306;2023-05-07T12:08:17;2.35;;;0.40;;
41253;SDS011;26987;59.928;30.306;2023-05-07T12:10:47;3.10;;;0.85;;
41253;SDS011;26987;59.928;30.306;2023-05-07T12:13:18;6.03;;;0.85;;
41253;SDS011;26987;59.928;30.306;2023-05-07T12:15:49;4.25;;;0.80;;
41253;SDS011;26987;59.928;30.306;2023-05-07T12:18:18;7.07;;;0.60;;
41253;SDS011;26987;59.928;30.306;2023-05-07T12:20:47;2.33;;;1.08;;
41253;SDS011;26987;59.928;30.306;2023-05-07T12:23:15;2.60;;;0.95;;
41253;SDS011;26987;59.928;30.306;2023-05-07T12:25:46;0.93;;;0.50;;
41253;SDS011;26987;59.928;30.306;2023-05-07T12:28:14;1.92;;;0.82;;
41253;SDS011;26987;59.928;30.306;2023-05-07T12:30:45;3.20;;;0.90;;
41253;SDS011;26987;59.928;30.306;2023-05-07T12:33:17;3.03;;;0.70;;
41253;SDS011;26987;59.928;30.306;2023-05-07T12:35:47;6.15;;;1.02;;
41253;SDS011;26987;59.928;30.306;2023-05-07T12:38:16;6.38;;;1.50;;
41253;SDS011;26987;59.928;30.306;2023-05-07T12:40:45;2.63;;;0.90;;
41253;SDS011;26987;59.928;30.306;2023-05-07T12:43:17;6.03;;;0.80;;
41253;SDS011;26987;59.928;30.306;2023-05-07T12:45:48;3.88;;;0.93;;
41253;SDS011;26987;59.928;30.306;2023-05-07T12:48:17;1.85;;;0.68;;
41253;SDS011;26987;59.928;30.306;2023-05-07T12:50:48;5.20;;;0.82;;
41253;SDS011;26987;59.928;30.306;2023-05-07T12:53:20;4.70;;;0.80;;
41253;SDS011;26987;59.928;30.306;2023-05-07T12:55:50;7.85;;;1.00;;
41253;SDS011;26987;59.928;30.306;2023-05-07T12:58:19;6.50;;;0.77;;
41253;SDS011;26987;59.928;30.306;2023-05-07T13:00:49;3.58;;;0.70;;
41253;SDS011;26987;59.928;30.306;2023-05-07T13:03:21;1.63;;;0.60;;
41253;SDS011;26987;59.928;30.306;2023-05-07T13:05:51;1.52;;;0.65;;
41253;SDS011;26987;59.928;30.306;2023-05-07T13:08:23;3.75;;;0.77;;
41253;SDS011;26987;59.928;30.306;2023-05-07T13:10:52;3.50;;;1.02;;
41253;SDS011;26987;59.928;30.306;2023-05-07T13:13:20;3.88;;;1.00;;
41253;SDS011;26987;59.928;30.306;2023-05-07T13:15:49;4.30;;;0.98;;
41253;SDS011;26987;59.928;30.306;2023-05-07T13:18:17;1.67;;;0.75;;
41253;SDS011;26987;59.928;30.306;2023-05-07T13:20:45;4.32;;;1.55;;
41253;SDS011;26987;59.928;30.306;2023-05-07T13:23:13;1.67;;;0.65;;
41253;SDS011;26987;59.928;30.306;2023-05-07T13:25:41;3.00;;;0.65;;
41253;SDS011;26987;59.928;30.306;2023-05-07T13:28:09;6.40;;;0.73;;
41253;SDS011;26987;59.928;30.306;2023-05-07T13:30:36;9.18;;;0.68;;
41253;SDS011;26987;59.928;30.306;2023-05-07T13:33:06;9.52;;;1.30;;
41253;SDS011;26987;59.928;30.306;2023-05-07T13:35:34;1.70;;;0.63;;
41253;SDS011;26987;59.928;30.306;2023-05-07T13:38:04;2.33;;;0.60;;
41253;SDS011;26987;59.928;30.306;2023-05-07T13:40:32;1.85;;;0.50;;
41253;SDS011;26987;59.928;30.306;2023-05-07T13:43:00;8.02;;;0.50;;
41253;SDS011;26987;59.928;30.306;2023-05-07T13:45:29;3.72;;;0.60;;
41253;SDS011;26987;59.928;30.306;2023-05-07T13:47:57;1.00;;;0.50;;
41253;SDS011;26987;59.928;30.306;2023-05-07T13:50:26;3.63;;;1.02;;
41253;SDS011;26987;59.928;30.306;2023-05-07T13:52:55;3.58;;;0.80;;
41253;SDS011;26987;59.928;30.306;2023-05-07T13:55:23;1.75;;;0.60;;
41253;SDS011;26987;59.928;30.306;2023-05-07T13:57:55;1.73;;;0.60;;
41253;SDS011;26987;59.928;30.306;2023-05-07T14:00:24;1.23;;;0.40;;
41253;SDS011;26987;59.928;30.306;2023-05-07T14:02:52;3.17;;;0.90;;
41253;SDS011;26987;59.928;30.306;2023-05-07T14:05:20;4.82;;;1.20;;
41253;SDS011;26987;59.928;30.306;2023-05-07T14:07:50;1.73;;;0.75;;
41253;SDS011;26987;59.928;30.306;2023-05-07T14:10:19;5.65;;;1.00;;
41253;SDS011;26987;59.928;30.306;2023-05-07T14:12:47;3.75;;;0.93;;
41253;SDS011;26987;59.928;30.306;2023-05-07T14:15:15;2.40;;;0.77;;
41253;SDS011;26987;59.928;30.306;2023-05-07T14:17:43;2.40;;;0.60;;
41253;SDS011;26987;59.928;30.306;2023-05-07T14:20:11;4.40;;;0.63;;
41253;SDS011;26987;59.928;30.306;2023-05-07T14:22:40;1.20;;;0.60;;
41253;SDS011;26987;59.928;30.306;2023-05-07T14:25:09;3.60;;;0.80;;
41253;SDS011;26987;59.928;30.306;2023-05-07T14:27:37;1.45;;;0.45;;
41253;SDS011;26987;59.928;30.306;2023-05-07T14:30:06;2.85;;;0.63;;
41253;SDS011;26987;59.928;30.306;2023-05-07T14:32:34;1.15;;;0.57;;
41253;SDS011;26987;59.928;30.306;2023-05-07T14:35:03;1.65;;;1.05;;
41253;SDS011;26987;59.928;30.306;2023-05-07T14:37:31;3.92;;;0.73;;
41253;SDS011;26987;59.928;30.306;2023-05-07T14:39:59;4.43;;;0.60;;
41253;SDS011;26987;59.928;30.306;2023-05-07T14:42:29;1.13;;;0.60;;
41253;SDS011;26987;59.928;30.306;2023-05-07T14:44:57;6.13;;;0.70;;
41253;SDS011;26987;59.928;30.306;2023-05-07T14:47:24;6.00;;;0.95;;
41253;SDS011;26987;59.928;30.306;2023-05-07T14:49:52;1.38;;;0.75;;
41253;SDS011;26987;59.928;30.306;2023-05-07T14:52:21;3.42;;;1.05;;
41253;SDS011;26987;59.928;30.306;2023-05-07T14:54:48;1.52;;;0.65;;
41253;SDS011;26987;59.928;30.306;2023-05-07T14:57:17;1.55;;;0.60;;
41253;SDS011;26987;59.928;30.306;2023-05-07T14:59:46;4.45;;;0.85;;
41253;SDS011;26987;59.928;30.306;2023-05-07T15:02:15;2.55;;;1.15;;
41253;SDS011;26987;59.928;30.306;2023-05-07T15:04:43;1.98;;;0.60;;
41253;SDS011;26987;59.928;30.306;2023-05-07T15:07:12;2.00;;;0.75;;
41253;SDS011;26987;59.928;30.306;2023-05-07T15:09:41;5.63;;;1.48;;